Odate Noshiro, Japan

12:43 PM JST on September 22, 2014 (GMT +0900)
Akita | Change Station
CLOSE
Current Station
Airport
Location: Akita Airport,
Elevation: 315 ft
Nearby Weather Stations

Elev 315 ft 39.62 °N, 140.22 °E | Updated 43 minutes ago

Mostly Cloudy
Mostly Cloudy
72 °F
Feels Like 72 °F
N
15
Wind Variable Wind from West

Today
High -- | Low -- °F
--% Chance of Precip.
Yesterday
High -- | Low -- °F
Precip. -- in
5:25 AM 5:36 PM
Waning Crescent, 4% visible
Pressure 30.04 in
Visibility 6.2 miles
Clouds Few 3000 ft
Mostly Cloudy 4500 ft
Dew Point 50 °F
Humidity 46%
Rainfall 0.00 in
Snow Depth Not available.
UV 4 out of 12
Pollen Not available.
Air Quality Not available.
Flu Activity Not available.
METAR RJSK 220300Z 28013KT 9999 FEW030 BKN045 22/10 Q1017

More Conditions Fewer Conditions

Pressure 30.04 in
Visibility 6.2 miles
Clouds Few 3000 ft
Mostly Cloudy 4500 ft
Dew Point 50 °F
Humidity 46%
Rainfall 0.00 in
Snow Depth Not available.
UV 4 out of 12
Pollen Not available.
Air Quality Not available.
Flu Activity Not available.
METAR RJSK 220300Z 28013KT 9999 FEW030 BKN045 22/10 Q1017

More Conditions Fewer Conditions

10-Day Weather Forecast

Almanac

Astronomy

Sep. 22, 2014 Rise Set
Actual Time 5:25 AM JST 5:36 PM JST
Civil Twilight 4:58 AM JST 6:03 PM JST
Nautical Twilight 4:26 AM JST 6:35 PM JST
Astronomical Twilight 3:54 AM JST 7:07 PM JST
Moon 3:18 AM JST 4:24 PM JST
Length of Visible Light 13h 05m
Length of Day
12h 11m
Tomorrow will be 2m 38s shorter.
Waning Crescent, 4% of the Moon is Illuminated
Sep 21
Waning Crescent
Sep 24
New
Oct 1
First Quarter
Oct 8
Full
Oct 15
Last Quarter

Yesterday's Extremes

Country Highs Country Lows

Community

WunderPhotos

Upload Photos

1,755,382 photos uploaded!

WunderBlogs® & News

Nearby

Snow Depth

Not available.

Earthquake Activity

City Distance Mag. Time & Date
No recent earthquake activity has been reported nearby.
Minimum magnitude displayed is 2.5.

Coastal Water Temperatures

Place Temperature
No Stations Reporting

Nearby Weather Stations